sensor_id;sensor_type;location;lat;lon;timestamp;pressure;altitude;pressure_sealevel;temperature;humidity
15193;BME280;7697;51.630;7.484;2022-11-20T00:00:17;100526.22;;;-1.51;86.29
15193;BME280;7697;51.630;7.484;2022-11-20T00:05:20;100534.16;;;-1.53;86.69
15193;BME280;7697;51.630;7.484;2022-11-20T00:10:22;100528.00;;;-1.52;87.23
15193;BME280;7697;51.630;7.484;2022-11-20T00:15:23;100528.00;;;-1.52;87.45
15193;BME280;7697;51.630;7.484;2022-11-20T00:20:27;100535.66;;;-1.50;87.02
15193;BME280;7697;51.630;7.484;2022-11-20T00:25:29;100529.91;;;-1.54;86.99
15193;BME280;7697;51.630;7.484;2022-11-20T00:30:30;100527.44;;;-1.55;86.91
15193;BME280;7697;51.630;7.484;2022-11-20T00:35:33;100524.25;;;-1.59;86.91
15193;BME280;7697;51.630;7.484;2022-11-20T00:40:35;100516.13;;;-1.65;87.08
15193;BME280;7697;51.630;7.484;2022-11-20T00:45:36;100524.25;;;-1.70;87.23
15193;BME280;7697;51.630;7.484;2022-11-20T00:50:40;100527.00;;;-1.71;87.16
15193;BME280;7697;51.630;7.484;2022-11-20T00:55:42;100526.28;;;-1.73;87.70
15193;BME280;7697;51.630;7.484;2022-11-20T01:00:44;100533.25;;;-1.74;87.58
15193;BME280;7697;51.630;7.484;2022-11-20T01:05:47;100542.44;;;-1.70;87.68
15193;BME280;7697;51.630;7.484;2022-11-20T01:10:49;100545.50;;;-1.65;87.89
15193;BME280;7697;51.630;7.484;2022-11-20T01:15:51;100547.59;;;-1.59;87.90
15193;BME280;7697;51.630;7.484;2022-11-20T01:20:54;100531.31;;;-1.61;87.86
15193;BME280;7697;51.630;7.484;2022-11-20T01:25:55;100527.53;;;-1.57;88.42
15193;BME280;7697;51.630;7.484;2022-11-20T01:30:57;100532.13;;;-1.49;88.79
15193;BME280;7697;51.630;7.484;2022-11-20T01:36:05;100535.63;;;-1.39;88.70
15193;BME280;7697;51.630;7.484;2022-11-20T01:41:08;100522.13;;;-1.33;88.52
15193;BME280;7697;51.630;7.484;2022-11-20T01:46:15;100508.47;;;-1.35;88.45
15193;BME280;7697;51.630;7.484;2022-11-20T01:51:25;100496.56;;;-1.37;88.83
15193;BME280;7697;51.630;7.484;2022-11-20T01:56:31;100497.00;;;-1.32;89.01
15193;BME280;7697;51.630;7.484;2022-11-20T02:01:35;100487.31;;;-1.30;89.38
15193;BME280;7697;51.630;7.484;2022-11-20T02:06:43;100477.75;;;-1.30;89.15
15193;BME280;7697;51.630;7.484;2022-11-20T02:11:46;100474.09;;;-1.27;89.10
15193;BME280;7697;51.630;7.484;2022-11-20T02:16:48;100470.53;;;-1.26;89.60
15193;BME280;7697;51.630;7.484;2022-11-20T02:21:57;100470.53;;;-1.26;89.30
15193;BME280;7697;51.630;7.484;2022-11-20T02:27:05;100472.63;;;-1.20;89.92
15193;BME280;7697;51.630;7.484;2022-11-20T02:32:17;100473.22;;;-1.17;90.03
15193;BME280;7697;51.630;7.484;2022-11-20T02:37:20;100481.13;;;-1.18;89.61
15193;BME280;7697;51.630;7.484;2022-11-20T02:42:23;100478.53;;;-1.18;89.74
15193;BME280;7697;51.630;7.484;2022-11-20T02:47:25;100470.72;;;-1.18;89.77
15193;BME280;7697;51.630;7.484;2022-11-20T02:52:27;100468.06;;;-1.07;90.96
15193;BME280;7697;51.630;7.484;2022-11-20T02:57:30;100460.91;;;-0.94;90.56
15193;BME280;7697;51.630;7.484;2022-11-20T03:02:32;100463.25;;;-0.91;90.02
15193;BME280;7697;51.630;7.484;2022-11-20T03:07:34;100449.31;;;-0.90;90.38
15193;BME280;7697;51.630;7.484;2022-11-20T03:12:37;100443.59;;;-0.84;90.57
15193;BME280;7697;51.630;7.484;2022-11-20T03:17:39;100446.44;;;-0.87;90.46
15193;BME280;7697;51.630;7.484;2022-11-20T03:22:40;100432.06;;;-0.91;90.44
15193;BME280;7697;51.630;7.484;2022-11-20T03:27:43;100437.56;;;-0.84;91.32
15193;BME280;7697;51.630;7.484;2022-11-20T03:32:45;100436.91;;;-0.77;90.53
15193;BME280;7697;51.630;7.484;2022-11-20T03:37:47;100428.03;;;-0.74;90.70
15193;BME280;7697;51.630;7.484;2022-11-20T03:42:50;100429.53;;;-0.71;90.50
15193;BME280;7697;51.630;7.484;2022-11-20T03:47:52;100426.44;;;-0.65;90.82
15193;BME280;7697;51.630;7.484;2022-11-20T03:52:54;100414.13;;;-0.63;90.48
15193;BME280;7697;51.630;7.484;2022-11-20T03:57:57;100423.03;;;-0.56;90.94
15193;BME280;7697;51.630;7.484;2022-11-20T04:02:59;100421.50;;;-0.59;90.66
15193;BME280;7697;51.630;7.484;2022-11-20T04:08:01;100412.59;;;-0.66;90.57
15193;BME280;7697;51.630;7.484;2022-11-20T04:13:04;100415.75;;;-0.62;91.26
15193;BME280;7697;51.630;7.484;2022-11-20T04:18:05;100413.84;;;-0.60;90.81
15193;BME280;7697;51.630;7.484;2022-11-20T04:23:07;100418.66;;;-0.56;91.28
15193;BME280;7697;51.630;7.484;2022-11-20T04:28:10;100411.69;;;-0.55;91.11
15193;BME280;7697;51.630;7.484;2022-11-20T04:33:12;100405.53;;;-0.54;91.02
15193;BME280;7697;51.630;7.484;2022-11-20T04:38:14;100391.00;;;-0.57;90.82
15193;BME280;7697;51.630;7.484;2022-11-20T04:43:17;100401.38;;;-0.66;91.01
15193;BME280;7697;51.630;7.484;2022-11-20T04:48:18;100407.41;;;-0.66;90.86
15193;BME280;7697;51.630;7.484;2022-11-20T04:53:21;100413.69;;;-0.68;90.78
15193;BME280;7697;51.630;7.484;2022-11-20T04:58:24;100409.72;;;-0.72;91.02
15193;BME280;7697;51.630;7.484;2022-11-20T05:03:26;100407.38;;;-0.76;90.84
15193;BME280;7697;51.630;7.484;2022-11-20T05:08:28;100412.69;;;-0.77;91.10
15193;BME280;7697;51.630;7.484;2022-11-20T05:13:31;100412.94;;;-0.80;91.34
15193;BME280;7697;51.630;7.484;2022-11-20T05:18:33;100412.53;;;-0.85;91.60
15193;BME280;7697;51.630;7.484;2022-11-20T05:23:35;100405.13;;;-0.90;91.64
15193;BME280;7697;51.630;7.484;2022-11-20T05:28:39;100409.75;;;-0.93;91.43
15193;BME280;7697;51.630;7.484;2022-11-20T05:33:41;100415.47;;;-0.99;90.96
15193;BME280;7697;51.630;7.484;2022-11-20T05:38:43;100419.16;;;-1.02;91.30
15193;BME280;7697;51.630;7.484;2022-11-20T05:43:48;100400.50;;;-1.07;91.33
15193;BME280;7697;51.630;7.484;2022-11-20T05:48:50;100411.16;;;-1.10;90.79
15193;BME280;7697;51.630;7.484;2022-11-20T05:53:52;100407.03;;;-1.13;91.16
15193;BME280;7697;51.630;7.484;2022-11-20T05:58:55;100412.66;;;-1.17;91.05
15193;BME280;7697;51.630;7.484;2022-11-20T06:03:57;100408.75;;;-1.23;91.39
15193;BME280;7697;51.630;7.484;2022-11-20T06:08:59;100400.53;;;-1.28;91.30
15193;BME280;7697;51.630;7.484;2022-11-20T06:14:02;100394.22;;;-1.35;90.91
15193;BME280;7697;51.630;7.484;2022-11-20T06:19:03;100403.91;;;-1.37;91.28
15193;BME280;7697;51.630;7.484;2022-11-20T06:24:06;100399.78;;;-1.39;91.45
15193;BME280;7697;51.630;7.484;2022-11-20T06:29:09;100403.84;;;-1.46;91.52
15193;BME280;7697;51.630;7.484;2022-11-20T06:34:11;100402.31;;;-1.49;91.46
15193;BME280;7697;51.630;7.484;2022-11-20T06:39:13;100408.44;;;-1.50;91.25
15193;BME280;7697;51.630;7.484;2022-11-20T06:44:16;100408.13;;;-1.57;91.50
15193;BME280;7697;51.630;7.484;2022-11-20T06:49:17;100410.97;;;-1.60;91.54
15193;BME280;7697;51.630;7.484;2022-11-20T06:54:19;100415.09;;;-1.57;92.10
15193;BME280;7697;51.630;7.484;2022-11-20T06:59:22;100416.63;;;-1.55;92.31
15193;BME280;7697;51.630;7.484;2022-11-20T07:04:24;100433.66;;;-1.41;92.39
15193;BME280;7697;51.630;7.484;2022-11-20T07:09:25;100420.44;;;-1.38;92.50
15193;BME280;7697;51.630;7.484;2022-11-20T07:14:28;100420.75;;;-1.31;92.29
15193;BME280;7697;51.630;7.484;2022-11-20T07:19:30;100427.72;;;-1.32;92.32
15193;BME280;7697;51.630;7.484;2022-11-20T07:24:32;100429.75;;;-1.35;92.23
15193;BME280;7697;51.630;7.484;2022-11-20T07:29:35;100429.28;;;-1.40;92.18
15193;BME280;7697;51.630;7.484;2022-11-20T07:34:36;100433.16;;;-1.35;92.17
15193;BME280;7697;51.630;7.484;2022-11-20T07:39:38;100429.34;;;-1.31;92.16
15193;BME280;7697;51.630;7.484;2022-11-20T07:44:41;100430.59;;;-1.25;92.85
15193;BME280;7697;51.630;7.484;2022-11-20T07:49:43;100433.53;;;-1.19;92.63
15193;BME280;7697;51.630;7.484;2022-11-20T07:54:45;100440.75;;;-1.22;91.77
15193;BME280;7697;51.630;7.484;2022-11-20T07:59:48;100436.31;;;-1.31;92.22
15193;BME280;7697;51.630;7.484;2022-11-20T08:04:49;100438.16;;;-1.22;93.08
15193;BME280;7697;51.630;7.484;2022-11-20T08:09:51;100438.53;;;-1.06;93.04
15193;BME280;7697;51.630;7.484;2022-11-20T08:14:54;100439.03;;;-0.91;92.71
15193;BME280;7697;51.630;7.484;2022-11-20T08:20:01;100438.44;;;-0.74;92.94
15193;BME280;7697;51.630;7.484;2022-11-20T08:25:03;100442.19;;;-0.57;92.30
15193;BME280;7697;51.630;7.484;2022-11-20T08:30:08;100427.63;;;-0.29;92.79
15193;BME280;7697;51.630;7.484;2022-11-20T08:35:09;100431.63;;;-0.06;92.92
15193;BME280;7697;51.630;7.484;2022-11-20T08:40:11;100432.22;;;0.46;92.49
15193;BME280;7697;51.630;7.484;2022-11-20T08:45:15;100428.13;;;1.09;91.73
15193;BME280;7697;51.630;7.484;2022-11-20T08:50:17;100426.91;;;1.13;92.63
15193;BME280;7697;51.630;7.484;2022-11-20T08:55:19;100421.41;;;1.43;92.43
15193;BME280;7697;51.630;7.484;2022-11-20T09:00:22;100416.59;;;1.76;91.60
15193;BME280;7697;51.630;7.484;2022-11-20T09:05:24;100430.13;;;2.24;90.65
15193;BME280;7697;51.630;7.484;2022-11-20T09:10:26;100427.28;;;2.53;90.35
15193;BME280;7697;51.630;7.484;2022-11-20T09:15:29;100424.16;;;2.93;90.03
15193;BME280;7697;51.630;7.484;2022-11-20T09:20:33;100417.72;;;3.90;87.78
15193;BME280;7697;51.630;7.484;2022-11-20T09:25:35;100419.19;;;3.92;88.68
15193;BME280;7697;51.630;7.484;2022-11-20T09:30:38;100418.09;;;4.19;87.60
15193;BME280;7697;51.630;7.484;2022-11-20T09:35:40;100413.53;;;4.62;87.06
15193;BME280;7697;51.630;7.484;2022-11-20T09:40:47;100410.22;;;5.00;86.23
15193;BME280;7697;51.630;7.484;2022-11-20T09:46:03;100400.56;;;5.40;85.41
15193;BME280;7697;51.630;7.484;2022-11-20T09:51:16;100394.16;;;5.81;85.18
15193;BME280;7697;51.630;7.484;2022-11-20T09:56:20;100392.66;;;6.10;84.20
15193;BME280;7697;51.630;7.484;2022-11-20T10:01:26;100393.25;;;6.43;84.18
15193;BME280;7697;51.630;7.484;2022-11-20T10:06:32;100377.53;;;6.72;83.85
15193;BME280;7697;51.630;7.484;2022-11-20T10:11:45;100375.94;;;6.86;82.40
15193;BME280;7697;51.630;7.484;2022-11-20T10:16:57;100377.34;;;6.73;82.20
15193;BME280;7697;51.630;7.484;2022-11-20T10:22:09;100370.91;;;6.61;82.23
15193;BME280;7697;51.630;7.484;2022-11-20T10:27:41;100370.91;;;6.61;82.62
15193;BME280;7697;51.630;7.484;2022-11-20T10:32:52;100360.81;;;6.50;81.36
15193;BME280;7697;51.630;7.484;2022-11-20T10:37:58;100357.94;;;6.74;80.99
15193;BME280;7697;51.630;7.484;2022-11-20T10:43:03;100358.97;;;6.88;80.32
15193;BME280;7697;51.630;7.484;2022-11-20T10:48:15;100348.16;;;6.83;79.38
15193;BME280;7697;51.630;7.484;2022-11-20T10:53:27;100343.69;;;6.69;80.38
15193;BME280;7697;51.630;7.484;2022-11-20T10:58:39;100348.06;;;6.62;80.29
15193;BME280;7697;51.630;7.484;2022-11-20T11:03:46;100338.31;;;6.62;79.19
15193;BME280;7697;51.630;7.484;2022-11-20T11:08:49;100343.53;;;6.70;81.02
15193;BME280;7697;51.630;7.484;2022-11-20T11:13:53;100333.69;;;6.50;79.87
15193;BME280;7697;51.630;7.484;2022-11-20T11:19:12;100340.91;;;6.33;80.42
15193;BME280;7697;51.630;7.484;2022-11-20T11:24:20;100319.69;;;6.34;79.99
15193;BME280;7697;51.630;7.484;2022-11-20T11:29:23;100310.69;;;6.29;80.04
15193;BME280;7697;51.630;7.484;2022-11-20T11:34:28;100316.91;;;6.13;80.01
15193;BME280;7697;51.630;7.484;2022-11-20T11:39:31;100301.66;;;6.09;80.93
15193;BME280;7697;51.630;7.484;2022-11-20T11:44:34;100301.28;;;5.97;81.14
15193;BME280;7697;51.630;7.484;2022-11-20T11:50:07;100299.75;;;6.02;80.07
15193;BME280;7697;51.630;7.484;2022-11-20T11:55:19;100291.84;;;6.02;79.88
15193;BME280;7697;51.630;7.484;2022-11-20T12:00:26;100281.88;;;5.98;79.34
15193;BME280;7697;51.630;7.484;2022-11-20T12:05:34;100266.81;;;5.92;79.82
15193;BME280;7697;51.630;7.484;2022-11-20T12:10:43;100261.09;;;5.88;79.62
15193;BME280;7697;51.630;7.484;2022-11-20T12:15:47;100261.59;;;5.84;79.53
15193;BME280;7697;51.630;7.484;2022-11-20T12:21:02;100257.16;;;5.84;79.17
15193;BME280;7697;51.630;7.484;2022-11-20T12:26:15;100230.69;;;5.86;79.54
15193;BME280;7697;51.630;7.484;2022-11-20T12:31:41;100235.97;;;5.86;79.09
15193;BME280;7697;51.630;7.484;2022-11-20T12:36:56;100214.25;;;6.44;77.90
15193;BME280;7697;51.630;7.484;2022-11-20T12:42:20;100209.22;;;6.05;78.76
15193;BME280;7697;51.630;7.484;2022-11-20T12:53:12;100201.16;;;6.07;78.59
15193;BME280;7697;51.630;7.484;2022-11-20T12:58:29;100190.91;;;5.97;78.29
15193;BME280;7697;51.630;7.484;2022-11-20T13:03:42;100196.22;;;5.89;78.66
15193;BME280;7697;51.630;7.484;2022-11-20T13:08:54;100184.94;;;5.80;78.75
15193;BME280;7697;51.630;7.484;2022-11-20T13:14:16;100176.94;;;5.74;78.43
15193;BME280;7697;51.630;7.484;2022-11-20T13:19:22;100162.44;;;5.63;78.44
15193;BME280;7697;51.630;7.484;2022-11-20T13:24:27;100153.44;;;5.57;78.70
15193;BME280;7697;51.630;7.484;2022-11-20T13:29:30;100143.66;;;5.51;78.96
15193;BME280;7697;51.630;7.484;2022-11-20T13:34:33;100124.69;;;5.41;79.53
15193;BME280;7697;51.630;7.484;2022-11-20T13:39:36;100110.66;;;5.34;80.46
15193;BME280;7697;51.630;7.484;2022-11-20T13:44:41;100109.91;;;5.25;80.76
15193;BME280;7697;51.630;7.484;2022-11-20T13:49:44;100112.59;;;5.17;81.79
15193;BME280;7697;51.630;7.484;2022-11-20T13:54:58;100105.78;;;5.08;81.43
15193;BME280;7697;51.630;7.484;2022-11-20T14:00:09;100103.66;;;5.04;81.69
15193;BME280;7697;51.630;7.484;2022-11-20T14:05:19;100098.78;;;5.01;82.51
15193;BME280;7697;51.630;7.484;2022-11-20T14:10:26;100091.75;;;4.93;82.85
15193;BME280;7697;51.630;7.484;2022-11-20T14:15:29;100072.84;;;4.83;83.08
15193;BME280;7697;51.630;7.484;2022-11-20T14:20:32;100075.47;;;4.83;83.57
15193;BME280;7697;51.630;7.484;2022-11-20T14:25:35;100069.41;;;4.74;83.58
15193;BME280;7697;51.630;7.484;2022-11-20T14:30:43;100062.75;;;4.72;84.14
15193;BME280;7697;51.630;7.484;2022-11-20T14:35:47;100044.06;;;4.67;84.63
15193;BME280;7697;51.630;7.484;2022-11-20T14:40:51;100034.13;;;4.62;85.00
15193;BME280;7697;51.630;7.484;2022-11-20T14:45:58;100023.63;;;4.62;85.48
15193;BME280;7697;51.630;7.484;2022-11-20T14:51:00;100018.44;;;4.54;85.56
15193;BME280;7697;51.630;7.484;2022-11-20T14:56:04;100016.66;;;4.55;85.78
15193;BME280;7697;51.630;7.484;2022-11-20T15:01:07;100005.50;;;4.52;85.85
15193;BME280;7697;51.630;7.484;2022-11-20T15:06:11;99980.63;;;4.48;86.32
15193;BME280;7697;51.630;7.484;2022-11-20T15:11:18;99977.19;;;4.48;86.41
15193;BME280;7697;51.630;7.484;2022-11-20T15:16:22;99961.44;;;4.48;86.78
15193;BME280;7697;51.630;7.484;2022-11-20T15:21:24;99964.28;;;4.46;86.79
15193;BME280;7697;51.630;7.484;2022-11-20T15:26:27;99963.78;;;4.43;87.33
15193;BME280;7697;51.630;7.484;2022-11-20T15:31:29;99960.69;;;4.39;87.53
15193;BME280;7697;51.630;7.484;2022-11-20T15:36:31;99954.00;;;4.37;88.20
15193;BME280;7697;51.630;7.484;2022-11-20T15:41:34;99938.81;;;4.32;88.40
15193;BME280;7697;51.630;7.484;2022-11-20T15:46:38;99928.84;;;4.28;88.70
15193;BME280;7697;51.630;7.484;2022-11-20T15:51:43;99910.34;;;4.29;88.75
15193;BME280;7697;51.630;7.484;2022-11-20T15:56:48;99906.25;;;4.27;88.86
15193;BME280;7697;51.630;7.484;2022-11-20T16:01:49;99907.25;;;4.26;89.03
15193;BME280;7697;51.630;7.484;2022-11-20T16:06:51;99883.00;;;4.24;89.45
15193;BME280;7697;51.630;7.484;2022-11-20T16:11:54;99887.44;;;4.23;90.24
15193;BME280;7697;51.630;7.484;2022-11-20T16:16:58;99863.84;;;4.23;90.92
15193;BME280;7697;51.630;7.484;2022-11-20T16:22:00;99854.53;;;4.21;91.08
15193;BME280;7697;51.630;7.484;2022-11-20T16:27:03;99851.13;;;4.20;91.07
15193;BME280;7697;51.630;7.484;2022-11-20T16:32:05;99845.25;;;4.18;91.38
15193;BME280;7697;51.630;7.484;2022-11-20T16:37:07;99839.63;;;4.21;91.92
15193;BME280;7697;51.630;7.484;2022-11-20T16:42:10;99827.53;;;4.20;91.86
15193;BME280;7697;51.630;7.484;2022-11-20T16:47:11;99830.94;;;4.21;92.16
15193;BME280;7697;51.630;7.484;2022-11-20T16:52:13;99829.13;;;4.21;92.61
15193;BME280;7697;51.630;7.484;2022-11-20T16:57:16;99827.72;;;4.19;92.92
15193;BME280;7697;51.630;7.484;2022-11-20T17:02:18;99823.91;;;4.21;93.64
15193;BME280;7697;51.630;7.484;2022-11-20T17:07:19;99821.81;;;4.17;94.12
15193;BME280;7697;51.630;7.484;2022-11-20T17:12:22;99821.34;;;4.13;94.36
15193;BME280;7697;51.630;7.484;2022-11-20T17:17:24;99810.88;;;4.13;94.59
15193;BME280;7697;51.630;7.484;2022-11-20T17:22:26;99805.63;;;4.13;94.85
15193;BME280;7697;51.630;7.484;2022-11-20T17:27:29;99791.53;;;4.14;94.86
15193;BME280;7697;51.630;7.484;2022-11-20T17:32:31;99786.03;;;4.09;95.14
15193;BME280;7697;51.630;7.484;2022-11-20T17:37:32;99779.16;;;4.08;95.74
15193;BME280;7697;51.630;7.484;2022-11-20T17:42:35;99770.97;;;4.11;96.11
15193;BME280;7697;51.630;7.484;2022-11-20T17:47:37;99755.25;;;4.11;96.28
15193;BME280;7697;51.630;7.484;2022-11-20T17:52:39;99750.34;;;4.08;97.00
15193;BME280;7697;51.630;7.484;2022-11-20T17:57:42;99744.13;;;4.09;97.10
15193;BME280;7697;51.630;7.484;2022-11-20T18:02:54;99730.22;;;4.08;97.09
15193;BME280;7697;51.630;7.484;2022-11-20T18:07:55;99722.25;;;4.02;97.65
15193;BME280;7697;51.630;7.484;2022-11-20T18:12:58;99698.03;;;4.00;97.91
15193;BME280;7697;51.630;7.484;2022-11-20T18:18:00;99699.03;;;3.99;98.17
15193;BME280;7697;51.630;7.484;2022-11-20T18:23:02;99684.03;;;3.93;98.45
15193;BME280;7697;51.630;7.484;2022-11-20T18:28:05;99683.66;;;3.96;98.92
15193;BME280;7697;51.630;7.484;2022-11-20T18:33:06;99661.72;;;3.97;98.87
15193;BME280;7697;51.630;7.484;2022-11-20T18:38:08;99652.22;;;3.96;99.66
15193;BME280;7697;51.630;7.484;2022-11-20T18:43:11;99642.41;;;3.98;99.78
15193;BME280;7697;51.630;7.484;2022-11-20T18:48:31;99632.56;;;4.00;99.94
15193;BME280;7697;51.630;7.484;2022-11-20T18:53:33;99611.59;;;4.00;100.00
15193;BME280;7697;51.630;7.484;2022-11-20T18:58:36;99598.69;;;3.98;100.00
15193;BME280;7697;51.630;7.484;2022-11-20T19:03:39;99577.09;;;3.96;100.00
15193;BME280;7697;51.630;7.484;2022-11-20T19:08:42;99578.56;;;3.99;100.00
15193;BME280;7697;51.630;7.484;2022-11-20T19:13:45;99568.06;;;3.99;100.00
15193;BME280;7697;51.630;7.484;2022-11-20T19:18:47;99544.75;;;4.04;100.00
15193;BME280;7697;51.630;7.484;2022-11-20T19:23:50;99539.16;;;4.07;100.00
15193;BME280;7697;51.630;7.484;2022-11-20T19:28:54;99528.84;;;4.05;100.00
15193;BME280;7697;51.630;7.484;2022-11-20T19:33:58;99518.84;;;4.09;100.00
15193;BME280;7697;51.630;7.484;2022-11-20T19:39:00;99521.06;;;4.12;100.00
15193;BME280;7697;51.630;7.484;2022-11-20T19:44:07;99508.59;;;4.14;100.00
15193;BME280;7697;51.630;7.484;2022-11-20T19:49:11;99496.16;;;4.16;100.00
15193;BME280;7697;51.630;7.484;2022-11-20T19:54:14;99487.94;;;4.19;100.00
15193;BME280;7697;51.630;7.484;2022-11-20T19:59:17;99472.00;;;4.21;100.00
15193;BME280;7697;51.630;7.484;2022-11-20T20:04:19;99464.41;;;4.26;100.00
15193;BME280;7697;51.630;7.484;2022-11-20T20:09:20;99461.78;;;4.26;100.00
15193;BME280;7697;51.630;7.484;2022-11-20T20:14:24;99446.69;;;4.28;100.00
15193;BME280;7697;51.630;7.484;2022-11-20T20:19:26;99452.75;;;4.28;100.00
15193;BME280;7697;51.630;7.484;2022-11-20T20:24:27;99451.94;;;4.28;100.00
15193;BME280;7697;51.630;7.484;2022-11-20T20:29:30;99447.13;;;4.31;100.00
15193;BME280;7697;51.630;7.484;2022-11-20T20:34:32;99442.50;;;4.33;100.00
15193;BME280;7697;51.630;7.484;2022-11-20T20:39:33;99443.56;;;4.39;100.00
15193;BME280;7697;51.630;7.484;2022-11-20T20:44:37;99446.44;;;4.44;100.00
15193;BME280;7697;51.630;7.484;2022-11-20T20:49:56;99448.50;;;4.48;100.00
15193;BME280;7697;51.630;7.484;2022-11-20T20:54:58;99446.50;;;4.50;100.00
15193;BME280;7697;51.630;7.484;2022-11-20T21:00:03;99452.56;;;4.51;100.00
15193;BME280;7697;51.630;7.484;2022-11-20T21:05:05;99451.91;;;4.49;100.00
15193;BME280;7697;51.630;7.484;2022-11-20T21:10:07;99453.94;;;4.47;100.00
15193;BME280;7697;51.630;7.484;2022-11-20T21:15:10;99458.38;;;4.46;100.00
15193;BME280;7697;51.630;7.484;2022-11-20T21:20:12;99459.97;;;4.47;100.00
15193;BME280;7697;51.630;7.484;2022-11-20T21:25:45;99469.09;;;4.51;100.00
15193;BME280;7697;51.630;7.484;2022-11-20T21:30:48;99477.94;;;4.50;100.00
15193;BME280;7697;51.630;7.484;2022-11-20T21:35:49;99470.28;;;4.49;100.00
15193;BME280;7697;51.630;7.484;2022-11-20T21:40:51;99483.13;;;4.44;100.00
15193;BME280;7697;51.630;7.484;2022-11-20T21:45:59;99492.44;;;4.46;100.00
15193;BME280;7697;51.630;7.484;2022-11-20T21:51:01;99497.59;;;4.40;100.00
15193;BME280;7697;51.630;7.484;2022-11-20T21:56:06;99508.47;;;4.37;100.00
15193;BME280;7697;51.630;7.484;2022-11-20T22:01:11;99522.50;;;4.29;100.00
15193;BME280;7697;51.630;7.484;2022-11-20T22:06:14;99525.84;;;4.23;100.00
15193;BME280;7697;51.630;7.484;2022-11-20T22:11:17;99528.75;;;4.13;100.00
15193;BME280;7697;51.630;7.484;2022-11-20T22:16:21;99552.25;;;4.07;100.00
15193;BME280;7697;51.630;7.484;2022-11-20T22:21:25;99560.41;;;3.97;100.00
15193;BME280;7697;51.630;7.484;2022-11-20T22:26:28;99558.03;;;3.88;100.00
15193;BME280;7697;51.630;7.484;2022-11-20T22:31:31;99564.66;;;3.84;100.00
15193;BME280;7697;51.630;7.484;2022-11-20T22:36:35;99574.31;;;3.83;100.00
15193;BME280;7697;51.630;7.484;2022-11-20T22:41:37;99585.13;;;3.80;100.00
15193;BME280;7697;51.630;7.484;2022-11-20T22:46:40;99596.16;;;3.75;100.00
15193;BME280;7697;51.630;7.484;2022-11-20T22:51:42;99607.41;;;3.76;100.00
15193;BME280;7697;51.630;7.484;2022-11-20T22:56:44;99630.19;;;3.75;100.00
15193;BME280;7697;51.630;7.484;2022-11-20T23:01:47;99630.56;;;3.72;100.00
15193;BME280;7697;51.630;7.484;2022-11-20T23:06:48;99641.28;;;3.63;100.00
15193;BME280;7697;51.630;7.484;2022-11-20T23:11:51;99643.63;;;3.58;100.00
15193;BME280;7697;51.630;7.484;2022-11-20T23:16:54;99650.53;;;3.51;100.00
15193;BME280;7697;51.630;7.484;2022-11-20T23:21:56;99656.56;;;3.51;100.00
15193;BME280;7697;51.630;7.484;2022-11-20T23:26:58;99657.94;;;3.47;100.00
15193;BME280;7697;51.630;7.484;2022-11-20T23:32:01;99668.75;;;3.44;100.00
15193;BME280;7697;51.630;7.484;2022-11-20T23:37:03;99667.13;;;3.43;100.00
15193;BME280;7697;51.630;7.484;2022-11-20T23:42:04;99673.50;;;3.40;100.00
15193;BME280;7697;51.630;7.484;2022-11-20T23:47:07;99681.19;;;3.42;100.00
15193;BME280;7697;51.630;7.484;2022-11-20T23:52:09;99684.44;;;3.44;100.00
15193;BME280;7697;51.630;7.484;2022-11-20T23:57:11;99690.50;;;3.45;100.00
